sensor_id;sensor_type;location;lat;lon;timestamp;pressure;altitude;pressure_sealevel;temperature;humidity
30682;BME280;17439;48.092;11.842;2022-07-29T00:00:57;95340.78;;;24.01;43.04
30682;BME280;17439;48.092;11.842;2022-07-29T00:03:24;95338.03;;;23.98;43.20
30682;BME280;17439;48.092;11.842;2022-07-29T00:05:50;95345.16;;;23.95;43.08
30682;BME280;17439;48.092;11.842;2022-07-29T00:08:17;95345.94;;;23.92;43.26
30682;BME280;17439;48.092;11.842;2022-07-29T00:10:44;95338.44;;;23.89;43.57
30682;BME280;17439;48.092;11.842;2022-07-29T00:13:10;95338.47;;;23.85;43.82
30682;BME280;17439;48.092;11.842;2022-07-29T00:15:37;95345.16;;;23.84;43.46
30682;BME280;17439;48.092;11.842;2022-07-29T00:18:04;95342.00;;;23.82;43.71
30682;BME280;17439;48.092;11.842;2022-07-29T00:20:31;95330.94;;;23.79;43.43
30682;BME280;17439;48.092;11.842;2022-07-29T00:22:57;95333.72;;;23.79;43.72
30682;BME280;17439;48.092;11.842;2022-07-29T00:25:24;95325.81;;;23.77;43.59
30682;BME280;17439;48.092;11.842;2022-07-29T00:27:51;95331.34;;;23.77;43.63
30682;BME280;17439;48.092;11.842;2022-07-29T00:30:17;95332.53;;;23.76;43.76
30682;BME280;17439;48.092;11.842;2022-07-29T00:32:44;95333.72;;;23.75;44.00
30682;BME280;17439;48.092;11.842;2022-07-29T00:35:10;95339.25;;;23.75;44.07
30682;BME280;17439;48.092;11.842;2022-07-29T00:37:37;95339.66;;;23.73;43.99
30682;BME280;17439;48.092;11.842;2022-07-29T00:40:04;95329.75;;;23.72;44.26
30682;BME280;17439;48.092;11.842;2022-07-29T00:42:41;95335.69;;;23.71;44.25
30682;BME280;17439;48.092;11.842;2022-07-29T00:45:08;95323.44;;;23.72;43.75
30682;BME280;17439;48.092;11.842;2022-07-29T00:47:35;95321.88;;;23.71;44.17
30682;BME280;17439;48.092;11.842;2022-07-29T00:50:04;95317.09;;;23.71;43.79
30682;BME280;17439;48.092;11.842;2022-07-29T00:52:31;95312.38;;;23.72;44.15
30682;BME280;17439;48.092;11.842;2022-07-29T00:54:58;95316.34;;;23.71;44.18
30682;BME280;17439;48.092;11.842;2022-07-29T00:57:32;95312.38;;;23.72;43.97
30682;BME280;17439;48.092;11.842;2022-07-29T00:59:59;95312.38;;;23.72;44.19
30682;BME280;17439;48.092;11.842;2022-07-29T01:02:26;95307.63;;;23.72;44.04
30682;BME280;17439;48.092;11.842;2022-07-29T01:04:53;95301.31;;;23.72;43.98
30682;BME280;17439;48.092;11.842;2022-07-29T01:07:19;95308.03;;;23.71;44.29
30682;BME280;17439;48.092;11.842;2022-07-29T01:09:46;95304.09;;;23.72;43.95
30682;BME280;17439;48.092;11.842;2022-07-29T01:12:16;95310.00;;;23.70;44.44
30682;BME280;17439;48.092;11.842;2022-07-29T01:14:44;95304.47;;;23.70;44.25
30682;BME280;17439;48.092;11.842;2022-07-29T01:17:17;95303.66;;;23.70;44.42
30682;BME280;17439;48.092;11.842;2022-07-29T01:25:17;95306.06;;;23.64;45.47
30682;BME280;17439;48.092;11.842;2022-07-29T01:28:01;95302.09;;;23.65;45.01
30682;BME280;17439;48.092;11.842;2022-07-29T01:30:36;95304.09;;;23.65;44.55
30682;BME280;17439;48.092;11.842;2022-07-29T01:33:07;95296.19;;;23.63;44.77
30682;BME280;17439;48.092;11.842;2022-07-29T01:35:39;95293.81;;;23.62;44.97
30682;BME280;17439;48.092;11.842;2022-07-29T01:38:17;95298.56;;;23.61;44.87
30682;BME280;17439;48.092;11.842;2022-07-29T01:40:49;95288.69;;;23.60;44.98
30682;BME280;17439;48.092;11.842;2022-07-29T01:43:21;95294.63;;;23.59;44.90
30682;BME280;17439;48.092;11.842;2022-07-29T01:45:51;95285.53;;;23.58;44.44
30682;BME280;17439;48.092;11.842;2022-07-29T01:48:34;95291.09;;;23.54;44.78
30682;BME280;17439;48.092;11.842;2022-07-29T01:51:09;95288.72;;;23.53;45.01
30682;BME280;17439;48.092;11.842;2022-07-29T01:53:44;95285.53;;;23.51;45.29
30682;BME280;17439;48.092;11.842;2022-07-29T01:56:13;95288.69;;;23.49;44.88
30682;BME280;17439;48.092;11.842;2022-07-29T01:58:42;95282.41;;;23.45;45.55
30682;BME280;17439;48.092;11.842;2022-07-29T02:01:10;95279.66;;;23.42;45.73
30682;BME280;17439;48.092;11.842;2022-07-29T02:03:41;95285.19;;;23.38;45.79
30682;BME280;17439;48.092;11.842;2022-07-29T02:06:11;95285.19;;;23.34;45.90
30682;BME280;17439;48.092;11.842;2022-07-29T02:08:39;95283.63;;;23.30;45.76
30682;BME280;17439;48.092;11.842;2022-07-29T02:11:06;95287.19;;;23.12;46.00
30682;BME280;17439;48.092;11.842;2022-07-29T02:13:35;95285.22;;;23.16;45.80
30682;BME280;17439;48.092;11.842;2022-07-29T02:16:05;95286.41;;;23.12;46.41
30682;BME280;17439;48.092;11.842;2022-07-29T02:18:33;95277.31;;;23.08;46.00
30682;BME280;17439;48.092;11.842;2022-07-29T02:21:02;95283.59;;;23.05;46.58
30682;BME280;17439;48.092;11.842;2022-07-29T02:23:30;95280.47;;;22.99;46.22
30682;BME280;17439;48.092;11.842;2022-07-29T02:26:17;95272.97;;;22.96;46.54
30682;BME280;17439;48.092;11.842;2022-07-29T02:28:46;95270.59;;;22.94;46.55
30682;BME280;17439;48.092;11.842;2022-07-29T02:31:13;95265.84;;;22.91;46.47
30682;BME280;17439;48.092;11.842;2022-07-29T02:33:41;95266.66;;;22.88;46.46
30682;BME280;17439;48.092;11.842;2022-07-29T02:36:09;95259.16;;;22.85;46.67
30682;BME280;17439;48.092;11.842;2022-07-29T02:38:37;95259.53;;;22.80;46.84
30682;BME280;17439;48.092;11.842;2022-07-29T02:41:12;95268.22;;;22.78;47.81
30682;BME280;17439;48.092;11.842;2022-07-29T02:43:41;95256.38;;;22.74;47.55
30682;BME280;17439;48.092;11.842;2022-07-29T02:46:13;95265.44;;;22.71;48.06
30682;BME280;17439;48.092;11.842;2022-07-29T02:49:01;95257.94;;;22.68;48.74
30682;BME280;17439;48.092;11.842;2022-07-29T02:51:43;95262.31;;;22.66;49.28
30682;BME280;17439;48.092;11.842;2022-07-29T02:54:19;95260.72;;;22.64;48.65
30682;BME280;17439;48.092;11.842;2022-07-29T02:56:47;95257.19;;;22.64;48.42
30682;BME280;17439;48.092;11.842;2022-07-29T02:59:16;95256.75;;;22.62;48.34
30682;BME280;17439;48.092;11.842;2022-07-29T03:01:46;95238.22;;;22.62;48.15
30682;BME280;17439;48.092;11.842;2022-07-29T03:04:14;95236.63;;;22.61;48.11
30682;BME280;17439;48.092;11.842;2022-07-29T03:06:43;95244.94;;;22.61;48.20
30682;BME280;17439;48.092;11.842;2022-07-29T03:09:11;95239.00;;;22.59;48.12
30682;BME280;17439;48.092;11.842;2022-07-29T03:11:40;95244.53;;;22.59;48.10
30682;BME280;17439;48.092;11.842;2022-07-29T03:14:19;95243.75;;;22.59;48.95
30682;BME280;17439;48.092;11.842;2022-07-29T03:16:48;95246.09;;;22.57;48.41
30682;BME280;17439;48.092;11.842;2022-07-29T03:19:15;95243.75;;;22.55;48.18
30682;BME280;17439;48.092;11.842;2022-07-29T03:21:42;95240.59;;;22.53;48.67
30682;BME280;17439;48.092;11.842;2022-07-29T03:24:09;95239.38;;;22.51;48.54
30682;BME280;17439;48.092;11.842;2022-07-29T03:26:36;95237.41;;;22.48;48.66
30682;BME280;17439;48.092;11.842;2022-07-29T03:29:03;95236.63;;;22.43;48.58
30682;BME280;17439;48.092;11.842;2022-07-29T03:31:31;95250.44;;;22.40;48.68
30682;BME280;17439;48.092;11.842;2022-07-29T03:33:59;95246.88;;;22.36;48.84
30682;BME280;17439;48.092;11.842;2022-07-29T03:36:26;95253.97;;;22.33;48.90
30682;BME280;17439;48.092;11.842;2022-07-29T03:38:52;95245.25;;;22.27;48.88
30682;BME280;17439;48.092;11.842;2022-07-29T03:41:20;95255.50;;;22.23;48.87
30682;BME280;17439;48.092;11.842;2022-07-29T03:43:49;95264.94;;;22.19;48.79
30682;BME280;17439;48.092;11.842;2022-07-29T03:46:17;95265.72;;;22.12;48.98
30682;BME280;17439;48.092;11.842;2022-07-29T03:48:48;95248.34;;;22.04;49.80
30682;BME280;17439;48.092;11.842;2022-07-29T03:51:20;95255.44;;;21.98;49.15
30682;BME280;17439;48.092;11.842;2022-07-29T03:54:03;95249.91;;;21.91;49.92
30682;BME280;17439;48.092;11.842;2022-07-29T03:56:38;95245.16;;;21.84;49.92
30682;BME280;17439;48.092;11.842;2022-07-29T03:59:07;95247.50;;;21.79;49.24
30682;BME280;17439;48.092;11.842;2022-07-29T04:01:34;95255.34;;;21.73;49.32
30682;BME280;17439;48.092;11.842;2022-07-29T04:04:02;95257.69;;;21.67;49.34
30682;BME280;17439;48.092;11.842;2022-07-29T04:06:40;95261.22;;;21.61;51.21
30682;BME280;17439;48.092;11.842;2022-07-29T04:09:07;95252.13;;;21.56;49.95
30682;BME280;17439;48.092;11.842;2022-07-29T04:11:36;95252.88;;;21.53;49.97
30682;BME280;17439;48.092;11.842;2022-07-29T04:14:24;95256.03;;;21.48;50.39
30682;BME280;17439;48.092;11.842;2022-07-29T04:16:50;95250.09;;;21.46;50.45
30682;BME280;17439;48.092;11.842;2022-07-29T04:19:17;95250.03;;;21.43;50.18
30682;BME280;17439;48.092;11.842;2022-07-29T04:21:43;95251.63;;;21.40;50.58
30682;BME280;17439;48.092;11.842;2022-07-29T04:24:10;95250.41;;;21.37;50.39
30682;BME280;17439;48.092;11.842;2022-07-29T04:26:37;95261.03;;;21.35;50.50
30682;BME280;17439;48.092;11.842;2022-07-29T04:29:03;95256.69;;;21.34;50.89
30682;BME280;17439;48.092;11.842;2022-07-29T04:31:30;95263.41;;;21.33;50.61
30682;BME280;17439;48.092;11.842;2022-07-29T04:33:57;95259.44;;;21.31;50.83
30682;BME280;17439;48.092;11.842;2022-07-29T04:36:24;95266.94;;;21.30;50.80
30682;BME280;17439;48.092;11.842;2022-07-29T04:38:55;95271.63;;;21.30;50.60
30682;BME280;17439;48.092;11.842;2022-07-29T04:41:21;95266.88;;;21.27;51.03
30682;BME280;17439;48.092;11.842;2022-07-29T04:43:48;95266.09;;;21.26;51.22
30682;BME280;17439;48.092;11.842;2022-07-29T04:46:15;95272.78;;;21.25;51.28
30682;BME280;17439;48.092;11.842;2022-07-29T04:48:42;95267.66;;;21.24;51.51
30682;BME280;17439;48.092;11.842;2022-07-29T04:51:11;95275.53;;;21.25;51.47
30682;BME280;17439;48.092;11.842;2022-07-29T04:53:39;95276.34;;;21.26;51.77
30682;BME280;17439;48.092;11.842;2022-07-29T04:56:05;95277.53;;;21.28;51.62
30682;BME280;17439;48.092;11.842;2022-07-29T04:58:35;95288.59;;;21.32;52.63
30682;BME280;17439;48.092;11.842;2022-07-29T05:01:03;95279.56;;;21.35;51.76
30682;BME280;17439;48.092;11.842;2022-07-29T05:03:29;95287.06;;;21.38;51.95
30682;BME280;17439;48.092;11.842;2022-07-29T05:05:56;95289.06;;;21.45;52.07
30682;BME280;17439;48.092;11.842;2022-07-29T05:08:23;95292.69;;;21.52;51.67
30682;BME280;17439;48.092;11.842;2022-07-29T05:10:49;95290.34;;;21.58;51.95
30682;BME280;17439;48.092;11.842;2022-07-29T05:13:16;95288.41;;;21.66;52.40
30682;BME280;17439;48.092;11.842;2022-07-29T05:15:42;95291.22;;;21.73;52.64
30682;BME280;17439;48.092;11.842;2022-07-29T05:18:09;95301.50;;;21.80;52.76
30682;BME280;17439;48.092;11.842;2022-07-29T05:20:36;95297.97;;;21.90;52.58
30682;BME280;17439;48.092;11.842;2022-07-29T05:23:03;95297.25;;;22.00;52.09
30682;BME280;17439;48.092;11.842;2022-07-29T05:25:30;95300.41;;;22.09;52.09
30682;BME280;17439;48.092;11.842;2022-07-29T05:28:11;95304.81;;;22.25;52.19
30682;BME280;17439;48.092;11.842;2022-07-29T05:30:37;95304.47;;;22.37;51.76
30682;BME280;17439;48.092;11.842;2022-07-29T05:33:04;95315.56;;;22.52;51.94
30682;BME280;17439;48.092;11.842;2022-07-29T05:35:31;95311.22;;;22.65;52.01
30682;BME280;17439;48.092;11.842;2022-07-29T05:37:57;95308.88;;;22.78;51.85
30682;BME280;17439;48.092;11.842;2022-07-29T05:40:24;95310.06;;;22.95;51.34
30682;BME280;17439;48.092;11.842;2022-07-29T05:42:51;95310.50;;;23.08;51.07
30682;BME280;17439;48.092;11.842;2022-07-29T05:45:17;95312.84;;;23.24;50.67
30682;BME280;17439;48.092;11.842;2022-07-29T05:47:44;95306.91;;;23.36;50.57
30682;BME280;17439;48.092;11.842;2022-07-29T05:50:10;95320.34;;;23.48;50.17
30682;BME280;17439;48.092;11.842;2022-07-29T05:52:37;95304.91;;;23.58;50.24
30682;BME280;17439;48.092;11.842;2022-07-29T05:55:04;95312.00;;;23.66;50.11
30682;BME280;17439;48.092;11.842;2022-07-29T05:57:31;95310.41;;;23.72;49.70
30682;BME280;17439;48.092;11.842;2022-07-29T05:59:58;95310.75;;;23.78;49.64
30682;BME280;17439;48.092;11.842;2022-07-29T06:02:25;95321.06;;;23.85;49.11
30682;BME280;17439;48.092;11.842;2022-07-29T06:04:51;95318.28;;;23.88;49.25
30682;BME280;17439;48.092;11.842;2022-07-29T06:07:18;95325.00;;;23.91;49.06
30682;BME280;17439;48.092;11.842;2022-07-29T06:09:45;95326.53;;;23.96;48.97
30682;BME280;17439;48.092;11.842;2022-07-29T06:12:12;95319.03;;;24.00;48.78
30682;BME280;17439;48.092;11.842;2022-07-29T06:14:38;95327.72;;;24.05;48.86
30682;BME280;17439;48.092;11.842;2022-07-29T06:17:05;95322.53;;;24.11;48.54
30682;BME280;17439;48.092;11.842;2022-07-29T06:19:34;95329.25;;;24.17;48.19
30682;BME280;17439;48.092;11.842;2022-07-29T06:22:00;95332.41;;;24.23;48.18
30682;BME280;17439;48.092;11.842;2022-07-29T06:24:27;95328.00;;;24.29;48.19
30682;BME280;17439;48.092;11.842;2022-07-29T06:26:54;95329.97;;;24.36;47.97
30682;BME280;17439;48.092;11.842;2022-07-29T06:29:21;95324.78;;;24.41;47.77
30682;BME280;17439;48.092;11.842;2022-07-29T06:31:47;95318.81;;;24.50;47.50
30682;BME280;17439;48.092;11.842;2022-07-29T06:34:14;95316.00;;;24.57;46.76
30682;BME280;17439;48.092;11.842;2022-07-29T06:36:42;95319.94;;;24.63;46.55
30682;BME280;17439;48.092;11.842;2022-07-29T06:39:08;95321.06;;;24.70;46.60
30682;BME280;17439;48.092;11.842;2022-07-29T06:41:49;95318.69;;;24.75;45.50
30682;BME280;17439;48.092;11.842;2022-07-29T06:44:17;95322.97;;;24.80;46.20
30682;BME280;17439;48.092;11.842;2022-07-29T06:46:44;95324.16;;;24.83;46.13
30682;BME280;17439;48.092;11.842;2022-07-29T06:49:11;95320.56;;;24.86;46.44
30682;BME280;17439;48.092;11.842;2022-07-29T06:51:37;95321.34;;;24.90;46.29
30682;BME280;17439;48.092;11.842;2022-07-29T06:54:05;95317.34;;;24.94;45.86
30682;BME280;17439;48.092;11.842;2022-07-29T06:56:32;95324.84;;;24.97;45.99
30682;BME280;17439;48.092;11.842;2022-07-29T06:59:05;95326.38;;;25.02;46.27
30682;BME280;17439;48.092;11.842;2022-07-29T07:01:32;95329.16;;;25.06;46.32
30682;BME280;17439;48.092;11.842;2022-07-29T07:03:59;95329.06;;;25.13;45.79
30682;BME280;17439;48.092;11.842;2022-07-29T07:06:26;95315.97;;;25.17;46.00
30682;BME280;17439;48.092;11.842;2022-07-29T07:08:52;95326.22;;;25.24;45.67
30682;BME280;17439;48.092;11.842;2022-07-29T07:11:19;95327.78;;;25.28;45.83
30682;BME280;17439;48.092;11.842;2022-07-29T07:13:46;95324.97;;;25.32;46.06
30682;BME280;17439;48.092;11.842;2022-07-29T07:16:12;95322.56;;;25.38;45.76
30682;BME280;17439;48.092;11.842;2022-07-29T07:18:39;95319.34;;;25.43;45.57
30682;BME280;17439;48.092;11.842;2022-07-29T07:21:06;95313.72;;;25.50;45.39
30682;BME280;17439;48.092;11.842;2022-07-29T07:23:32;95318.84;;;25.55;45.42
30682;BME280;17439;48.092;11.842;2022-07-29T07:25:59;95320.75;;;25.62;45.30
30682;BME280;17439;48.092;11.842;2022-07-29T07:28:26;95323.84;;;25.67;45.33
30682;BME280;17439;48.092;11.842;2022-07-29T07:30:52;95327.34;;;25.75;45.52
30682;BME280;17439;48.092;11.842;2022-07-29T07:33:19;95333.25;;;25.81;44.88
30682;BME280;17439;48.092;11.842;2022-07-29T07:35:46;95330.41;;;25.84;45.17
30682;BME280;17439;48.092;11.842;2022-07-29T07:38:13;95332.38;;;25.87;44.66
30682;BME280;17439;48.092;11.842;2022-07-29T07:40:40;95331.50;;;25.94;44.34
30682;BME280;17439;48.092;11.842;2022-07-29T07:43:07;95330.69;;;25.97;44.66
30682;BME280;17439;48.092;11.842;2022-07-29T07:45:34;95329.88;;;26.00;44.45
30682;BME280;17439;48.092;11.842;2022-07-29T07:48:01;95325.06;;;26.04;44.32
30682;BME280;17439;48.092;11.842;2022-07-29T07:50:27;95323.03;;;26.09;43.68
30682;BME280;17439;48.092;11.842;2022-07-29T07:52:55;95321.41;;;26.11;43.71
30682;BME280;17439;48.092;11.842;2022-07-29T07:55:22;95326.91;;;26.15;43.07
30682;BME280;17439;48.092;11.842;2022-07-29T07:57:49;95317.34;;;26.19;43.32
30682;BME280;17439;48.092;11.842;2022-07-29T08:00:16;95320.03;;;26.27;42.94
30682;BME280;17439;48.092;11.842;2022-07-29T08:02:43;95321.56;;;26.31;42.97
30682;BME280;17439;48.092;11.842;2022-07-29T08:05:11;95324.66;;;26.37;42.78
30682;BME280;17439;48.092;11.842;2022-07-29T08:07:39;95318.19;;;26.47;42.94
30682;BME280;17439;48.092;11.842;2022-07-29T08:10:06;95321.22;;;26.56;42.81
30682;BME280;17439;48.092;11.842;2022-07-29T08:12:32;95313.22;;;26.62;42.57
30682;BME280;17439;48.092;11.842;2022-07-29T08:14:59;95314.28;;;26.72;42.33
30682;BME280;17439;48.092;11.842;2022-07-29T08:17:25;95312.53;;;26.82;42.20
30682;BME280;17439;48.092;11.842;2022-07-29T08:19:52;95314.00;;;26.90;42.13
30682;BME280;17439;48.092;11.842;2022-07-29T08:22:19;95315.50;;;26.98;41.68
30682;BME280;17439;48.092;11.842;2022-07-29T08:24:45;95325.28;;;27.06;41.61
30682;BME280;17439;48.092;11.842;2022-07-29T08:27:13;95317.63;;;27.14;41.64
30682;BME280;17439;48.092;11.842;2022-07-29T08:30:00;95320.84;;;27.09;40.61
30682;BME280;17439;48.092;11.842;2022-07-29T08:32:26;95319.34;;;27.28;40.68
30682;BME280;17439;48.092;11.842;2022-07-29T08:35:13;95329.19;;;27.36;40.59
30682;BME280;17439;48.092;11.842;2022-07-29T08:37:39;95326.28;;;27.43;40.72
30682;BME280;17439;48.092;11.842;2022-07-29T08:40:06;95330.16;;;27.49;40.30
30682;BME280;17439;48.092;11.842;2022-07-29T08:42:33;95331.69;;;27.54;39.92
30682;BME280;17439;48.092;11.842;2022-07-29T08:44:59;95341.91;;;27.61;39.80
30682;BME280;17439;48.092;11.842;2022-07-29T08:47:27;95333.84;;;27.66;39.31
30682;BME280;17439;48.092;11.842;2022-07-29T08:49:54;95328.22;;;27.70;39.39
30682;BME280;17439;48.092;11.842;2022-07-29T08:52:20;95333.63;;;27.77;38.96
30682;BME280;17439;48.092;11.842;2022-07-29T08:54:48;95326.00;;;27.81;39.12
30682;BME280;17439;48.092;11.842;2022-07-29T08:57:16;95316.81;;;27.84;38.62
30682;BME280;17439;48.092;11.842;2022-07-29T08:59:46;95322.28;;;27.88;38.87
30682;BME280;17439;48.092;11.842;2022-07-29T09:02:24;95316.66;;;27.92;38.16
30682;BME280;17439;48.092;11.842;2022-07-29T09:04:52;95315.78;;;27.98;38.97
30682;BME280;17439;48.092;11.842;2022-07-29T09:07:19;95320.75;;;28.07;38.95
30682;BME280;17439;48.092;11.842;2022-07-29T09:09:46;95323.78;;;28.16;38.90
30682;BME280;17439;48.092;11.842;2022-07-29T09:12:12;95323.25;;;28.21;38.25
30682;BME280;17439;48.092;11.842;2022-07-29T09:14:55;95323.03;;;28.32;38.22
30682;BME280;17439;48.092;11.842;2022-07-29T09:20:16;95323.50;;;28.47;37.10
30682;BME280;17439;48.092;11.842;2022-07-29T09:22:44;95325.44;;;28.50;38.02
30682;BME280;17439;48.092;11.842;2022-07-29T09:25:11;95336.06;;;28.55;37.38
30682;BME280;17439;48.092;11.842;2022-07-29T09:27:38;95329.28;;;28.56;37.55
30682;BME280;17439;48.092;11.842;2022-07-29T09:30:07;95321.72;;;28.57;37.29
30682;BME280;17439;48.092;11.842;2022-07-29T09:32:53;95320.25;;;28.52;37.89
30682;BME280;17439;48.092;11.842;2022-07-29T09:35:22;95324.16;;;28.55;37.37
30682;BME280;17439;48.092;11.842;2022-07-29T09:37:50;95324.09;;;28.58;37.53
30682;BME280;17439;48.092;11.842;2022-07-29T09:40:22;95318.03;;;28.64;37.33
30682;BME280;17439;48.092;11.842;2022-07-29T09:42:50;95313.13;;;28.68;37.93
30682;BME280;17439;48.092;11.842;2022-07-29T09:45:28;95319.44;;;28.72;37.00
30682;BME280;17439;48.092;11.842;2022-07-29T09:47:55;95315.16;;;28.67;38.07
30682;BME280;17439;48.092;11.842;2022-07-29T09:50:21;95303.56;;;28.85;37.85
30682;BME280;17439;48.092;11.842;2022-07-29T09:52:50;95305.69;;;28.98;37.31
30682;BME280;17439;48.092;11.842;2022-07-29T09:55:18;95305.88;;;29.07;37.14
30682;BME280;17439;48.092;11.842;2022-07-29T09:57:46;95298.03;;;29.02;36.36
30682;BME280;17439;48.092;11.842;2022-07-29T10:00:18;95307.47;;;29.24;37.53
30682;BME280;17439;48.092;11.842;2022-07-29T10:02:46;95291.91;;;29.40;37.25
30682;BME280;17439;48.092;11.842;2022-07-29T10:05:25;95298.78;;;29.52;36.65
30682;BME280;17439;48.092;11.842;2022-07-29T10:08:02;95290.47;;;29.64;36.17
30682;BME280;17439;48.092;11.842;2022-07-29T10:10:34;95299.78;;;29.74;35.94
30682;BME280;17439;48.092;11.842;2022-07-29T10:13:03;95301.56;;;29.84;35.92
30682;BME280;17439;48.092;11.842;2022-07-29T10:15:42;95295.13;;;30.00;34.64
30682;BME280;17439;48.092;11.842;2022-07-29T10:18:11;95296.06;;;30.10;34.88
30682;BME280;17439;48.092;11.842;2022-07-29T10:20:38;95303.09;;;30.15;34.73
30682;BME280;17439;48.092;11.842;2022-07-29T10:23:05;95298.28;;;30.15;34.97
30682;BME280;17439;48.092;11.842;2022-07-29T10:25:32;95291.94;;;30.15;35.27
30682;BME280;17439;48.092;11.842;2022-07-29T10:27:59;95295.06;;;30.17;35.10
30682;BME280;17439;48.092;11.842;2022-07-29T10:30:26;95296.19;;;30.19;35.32
30682;BME280;17439;48.092;11.842;2022-07-29T10:38:45;95293.28;;;30.23;34.41
30682;BME280;17439;48.092;11.842;2022-07-29T10:46:24;95289.22;;;30.11;34.72
30682;BME280;17439;48.092;11.842;2022-07-29T10:49:11;95294.25;;;30.03;34.78
30682;BME280;17439;48.092;11.842;2022-07-29T10:54:17;95295.22;;;29.97;35.28
30682;BME280;17439;48.092;11.842;2022-07-29T10:56:44;95296.00;;;29.97;35.50
30682;BME280;17439;48.092;11.842;2022-07-29T11:01:48;95298.81;;;29.97;35.84
30682;BME280;17439;48.092;11.842;2022-07-29T11:07:15;95294.53;;;29.93;35.19
30682;BME280;17439;48.092;11.842;2022-07-29T11:09:42;95301.44;;;29.88;35.54
30682;BME280;17439;48.092;11.842;2022-07-29T11:12:47;95300.41;;;29.82;35.30
30682;BME280;17439;48.092;11.842;2022-07-29T11:15:15;95295.78;;;29.75;35.65
30682;BME280;17439;48.092;11.842;2022-07-29T11:23:30;95306.63;;;29.57;35.86
30682;BME280;17439;48.092;11.842;2022-07-29T11:31:36;95304.47;;;29.48;36.47
30682;BME280;17439;48.092;11.842;2022-07-29T11:34:27;95297.75;;;29.45;37.04
30682;BME280;17439;48.092;11.842;2022-07-29T11:39:34;95293.88;;;29.56;37.26
30682;BME280;17439;48.092;11.842;2022-07-29T11:47:56;95285.03;;;29.90;35.36
30682;BME280;17439;48.092;11.842;2022-07-29T11:50:34;95287.06;;;30.02;35.40
30682;BME280;17439;48.092;11.842;2022-07-29T11:53:09;95279.50;;;30.16;35.04
30682;BME280;17439;48.092;11.842;2022-07-29T11:55:37;95276.06;;;30.25;34.45
30682;BME280;17439;48.092;11.842;2022-07-29T11:58:21;95270.16;;;30.35;33.41
30682;BME280;17439;48.092;11.842;2022-07-29T12:01:13;95277.03;;;30.47;33.29
30682;BME280;17439;48.092;11.842;2022-07-29T12:03:40;95265.84;;;30.60;33.57
30682;BME280;17439;48.092;11.842;2022-07-29T12:06:13;95267.97;;;30.69;33.30
30682;BME280;17439;48.092;11.842;2022-07-29T12:08:43;95263.28;;;30.79;32.58
30682;BME280;17439;48.092;11.842;2022-07-29T12:11:17;95256.78;;;30.69;33.50
30682;BME280;17439;48.092;11.842;2022-07-29T12:13:48;95255.09;;;30.84;33.06
30682;BME280;17439;48.092;11.842;2022-07-29T12:16:15;95256.41;;;30.92;32.39
30682;BME280;17439;48.092;11.842;2022-07-29T12:19:02;95260.69;;;30.97;32.20
30682;BME280;17439;48.092;11.842;2022-07-29T12:21:55;95249.84;;;30.99;33.15
30682;BME280;17439;48.092;11.842;2022-07-29T12:24:26;95246.81;;;31.06;32.48
30682;BME280;17439;48.092;11.842;2022-07-29T12:26:58;95247.34;;;31.14;32.21
30682;BME280;17439;48.092;11.842;2022-07-29T12:29:26;95253.81;;;31.24;32.54
30682;BME280;17439;48.092;11.842;2022-07-29T12:32:02;95252.03;;;31.30;31.03
30682;BME280;17439;48.092;11.842;2022-07-29T12:34:30;95243.94;;;31.32;30.88
30682;BME280;17439;48.092;11.842;2022-07-29T12:36:57;95247.53;;;31.33;30.66
30682;BME280;17439;48.092;11.842;2022-07-29T12:39:24;95243.03;;;31.35;31.11
30682;BME280;17439;48.092;11.842;2022-07-29T12:41:51;95236.44;;;31.42;30.95
30682;BME280;17439;48.092;11.842;2022-07-29T12:44:52;95242.22;;;31.47;30.83
30682;BME280;17439;48.092;11.842;2022-07-29T12:47:19;95239.53;;;31.57;30.83
30682;BME280;17439;48.092;11.842;2022-07-29T12:49:46;95236.94;;;31.50;31.91
30682;BME280;17439;48.092;11.842;2022-07-29T12:52:30;95234.47;;;31.64;31.19
30682;BME280;17439;48.092;11.842;2022-07-29T12:54:58;95232.97;;;31.73;30.76
30682;BME280;17439;48.092;11.842;2022-07-29T12:57:25;95224.09;;;31.74;30.57
30682;BME280;17439;48.092;11.842;2022-07-29T13:00:07;95232.06;;;31.76;30.46
30682;BME280;17439;48.092;11.842;2022-07-29T13:02:34;95228.22;;;31.82;30.40
30682;BME280;17439;48.092;11.842;2022-07-29T13:05:04;95230.88;;;31.86;30.49
30682;BME280;17439;48.092;11.842;2022-07-29T13:07:32;95223.91;;;31.91;30.05
30682;BME280;17439;48.092;11.842;2022-07-29T13:10:20;95225.78;;;31.94;30.05
30682;BME280;17439;48.092;11.842;2022-07-29T13:13:12;95235.78;;;31.95;29.65
30682;BME280;17439;48.092;11.842;2022-07-29T13:15:41;95233.59;;;31.99;30.02
30682;BME280;17439;48.092;11.842;2022-07-29T13:18:31;95226.91;;;31.96;29.43
30682;BME280;17439;48.092;11.842;2022-07-29T13:21:11;95228.91;;;31.96;29.59
30682;BME280;17439;48.092;11.842;2022-07-29T13:23:38;95223.31;;;31.96;30.13
30682;BME280;17439;48.092;11.842;2022-07-29T13:26:06;95226.09;;;31.96;29.92
30682;BME280;17439;48.092;11.842;2022-07-29T13:28:33;95225.72;;;31.85;30.93
30682;BME280;17439;48.092;11.842;2022-07-29T13:31:00;95229.72;;;31.96;30.18
30682;BME280;17439;48.092;11.842;2022-07-29T13:33:27;95227.38;;;31.95;30.34
30682;BME280;17439;48.092;11.842;2022-07-29T13:35:53;95224.56;;;31.95;29.47
30682;BME280;17439;48.092;11.842;2022-07-29T13:38:20;95220.19;;;31.94;29.76
30682;BME280;17439;48.092;11.842;2022-07-29T13:40:56;95219.22;;;31.88;29.21
30682;BME280;17439;48.092;11.842;2022-07-29T13:43:23;95216.53;;;31.84;29.18
30682;BME280;17439;48.092;11.842;2022-07-29T13:45:49;95215.13;;;31.79;29.42
30682;BME280;17439;48.092;11.842;2022-07-29T13:48:16;95224.09;;;31.74;29.38
30682;BME280;17439;48.092;11.842;2022-07-29T13:50:43;95220.31;;;31.68;29.81